sensor_id;sensor_type;location;lat;lon;timestamp;P1;durP1;ratioP1;P2;durP2;ratioP2
81627;SDS011;71036;51.102;6.514;2023-11-21T00:02:22;28.23;;;12.57;;
81627;SDS011;71036;51.102;6.514;2023-11-21T00:04:48;31.40;;;12.03;;
81627;SDS011;71036;51.102;6.514;2023-11-21T00:07:13;25.43;;;12.67;;
81627;SDS011;71036;51.102;6.514;2023-11-21T00:09:38;34.97;;;11.63;;
81627;SDS011;71036;51.102;6.514;2023-11-21T00:12:03;25.27;;;12.00;;
81627;SDS011;71036;51.102;6.514;2023-11-21T00:14:28;26.30;;;12.40;;
81627;SDS011;71036;51.102;6.514;2023-11-21T00:16:54;33.78;;;13.63;;
81627;SDS011;71036;51.102;6.514;2023-11-21T00:19:19;27.97;;;14.07;;
81627;SDS011;71036;51.102;6.514;2023-11-21T00:21:44;27.30;;;13.67;;
81627;SDS011;71036;51.102;6.514;2023-11-21T00:24:10;38.40;;;12.20;;
81627;SDS011;71036;51.102;6.514;2023-11-21T00:26:38;25.93;;;12.63;;
81627;SDS011;71036;51.102;6.514;2023-11-21T00:29:03;26.70;;;12.73;;
81627;SDS011;71036;51.102;6.514;2023-11-21T00:31:28;30.60;;;12.87;;
81627;SDS011;71036;51.102;6.514;2023-11-21T00:33:53;22.70;;;12.83;;
81627;SDS011;71036;51.102;6.514;2023-11-21T00:36:20;25.20;;;10.97;;
81627;SDS011;71036;51.102;6.514;2023-11-21T00:38:45;27.00;;;11.63;;
81627;SDS011;71036;51.102;6.514;2023-11-21T00:41:10;24.37;;;11.20;;
81627;SDS011;71036;51.102;6.514;2023-11-21T00:43:36;25.53;;;10.70;;
81627;SDS011;71036;51.102;6.514;2023-11-21T00:46:03;27.97;;;10.80;;
81627;SDS011;71036;51.102;6.514;2023-11-21T00:48:29;23.07;;;11.07;;
81627;SDS011;71036;51.102;6.514;2023-11-21T00:50:54;23.02;;;11.77;;
81627;SDS011;71036;51.102;6.514;2023-11-21T00:53:22;28.90;;;12.33;;
81627;SDS011;71036;51.102;6.514;2023-11-21T00:55:47;26.93;;;12.97;;
81627;SDS011;71036;51.102;6.514;2023-11-21T00:58:12;25.53;;;13.20;;
81627;SDS011;71036;51.102;6.514;2023-11-21T01:00:37;26.20;;;12.15;;
81627;SDS011;71036;51.102;6.514;2023-11-21T01:03:04;43.10;;;13.97;;
81627;SDS011;71036;51.102;6.514;2023-11-21T01:05:29;31.47;;;14.80;;
81627;SDS011;71036;51.102;6.514;2023-11-21T01:07:54;29.05;;;13.85;;
81627;SDS011;71036;51.102;6.514;2023-11-21T01:10:20;47.90;;;16.50;;
81627;SDS011;71036;51.102;6.514;2023-11-21T01:12:45;42.80;;;15.47;;
81627;SDS011;71036;51.102;6.514;2023-11-21T01:15:10;39.28;;;14.90;;
81627;SDS011;71036;51.102;6.514;2023-11-21T01:17:37;43.43;;;17.80;;
81627;SDS011;71036;51.102;6.514;2023-11-21T01:20:03;58.13;;;18.50;;
81627;SDS011;71036;51.102;6.514;2023-11-21T01:22:31;38.30;;;15.30;;
81627;SDS011;71036;51.102;6.514;2023-11-21T01:24:56;41.33;;;15.63;;
81627;SDS011;71036;51.102;6.514;2023-11-21T01:27:22;39.33;;;15.90;;
81627;SDS011;71036;51.102;6.514;2023-11-21T01:29:48;37.60;;;16.93;;
81627;SDS011;71036;51.102;6.514;2023-11-21T01:32:13;39.93;;;16.83;;
81627;SDS011;71036;51.102;6.514;2023-11-21T01:34:38;46.90;;;14.90;;
81627;SDS011;71036;51.102;6.514;2023-11-21T01:37:03;33.80;;;13.97;;
81627;SDS011;71036;51.102;6.514;2023-11-21T01:39:30;39.50;;;16.57;;
81627;SDS011;71036;51.102;6.514;2023-11-21T01:41:56;42.73;;;17.03;;
81627;SDS011;71036;51.102;6.514;2023-11-21T01:44:23;41.77;;;17.30;;
81627;SDS011;71036;51.102;6.514;2023-11-21T01:46:49;41.10;;;17.40;;
81627;SDS011;71036;51.102;6.514;2023-11-21T01:49:14;54.10;;;17.70;;
81627;SDS011;71036;51.102;6.514;2023-11-21T01:51:41;43.20;;;18.40;;
81627;SDS011;71036;51.102;6.514;2023-11-21T01:54:06;63.10;;;19.90;;
81627;SDS011;71036;51.102;6.514;2023-11-21T01:56:32;67.87;;;19.77;;
81627;SDS011;71036;51.102;6.514;2023-11-21T01:58:57;58.87;;;20.80;;
81627;SDS011;71036;51.102;6.514;2023-11-21T02:01:22;77.57;;;27.57;;
81627;SDS011;71036;51.102;6.514;2023-11-21T02:03:47;55.53;;;20.57;;
81627;SDS011;71036;51.102;6.514;2023-11-21T02:06:13;58.80;;;19.90;;
81627;SDS011;71036;51.102;6.514;2023-11-21T02:08:38;63.60;;;19.50;;
81627;SDS011;71036;51.102;6.514;2023-11-21T02:11:04;54.30;;;19.13;;
81627;SDS011;71036;51.102;6.514;2023-11-21T02:13:30;52.80;;;17.63;;
81627;SDS011;71036;51.102;6.514;2023-11-21T02:15:56;67.80;;;21.20;;
81627;SDS011;71036;51.102;6.514;2023-11-21T02:18:21;53.07;;;18.13;;
81627;SDS011;71036;51.102;6.514;2023-11-21T02:20:47;56.60;;;19.10;;
81627;SDS011;71036;51.102;6.514;2023-11-21T02:23:12;68.70;;;19.77;;
81627;SDS011;71036;51.102;6.514;2023-11-21T02:25:37;73.57;;;23.07;;
81627;SDS011;71036;51.102;6.514;2023-11-21T02:28:03;72.47;;;20.37;;
81627;SDS011;71036;51.102;6.514;2023-11-21T02:30:29;81.30;;;23.80;;
81627;SDS011;71036;51.102;6.514;2023-11-21T02:32:55;81.40;;;21.20;;
81627;SDS011;71036;51.102;6.514;2023-11-21T02:35:24;66.67;;;21.30;;
81627;SDS011;71036;51.102;6.514;2023-11-21T02:37:51;81.87;;;22.80;;
81627;SDS011;71036;51.102;6.514;2023-11-21T02:40:16;83.20;;;24.50;;
81627;SDS011;71036;51.102;6.514;2023-11-21T02:42:46;67.70;;;23.10;;
81627;SDS011;71036;51.102;6.514;2023-11-21T02:45:12;81.93;;;24.07;;
81627;SDS011;71036;51.102;6.514;2023-11-21T02:47:39;81.63;;;22.47;;
81627;SDS011;71036;51.102;6.514;2023-11-21T02:50:04;85.07;;;22.77;;
81627;SDS011;71036;51.102;6.514;2023-11-21T02:52:32;76.47;;;23.90;;
81627;SDS011;71036;51.102;6.514;2023-11-21T02:54:58;74.17;;;23.53;;
81627;SDS011;71036;51.102;6.514;2023-11-21T02:57:23;84.70;;;25.30;;
81627;SDS011;71036;51.102;6.514;2023-11-21T02:59:48;88.13;;;24.83;;
81627;SDS011;71036;51.102;6.514;2023-11-21T03:02:13;101.80;;;23.00;;
81627;SDS011;71036;51.102;6.514;2023-11-21T03:04:39;92.47;;;24.17;;
81627;SDS011;71036;51.102;6.514;2023-11-21T03:07:04;97.32;;;24.27;;
81627;SDS011;71036;51.102;6.514;2023-11-21T03:09:30;87.00;;;23.67;;
81627;SDS011;71036;51.102;6.514;2023-11-21T03:11:55;90.73;;;22.27;;
81627;SDS011;71036;51.102;6.514;2023-11-21T03:14:20;81.15;;;24.23;;
81627;SDS011;71036;51.102;6.514;2023-11-21T03:16:45;86.05;;;21.88;;
81627;SDS011;71036;51.102;6.514;2023-11-21T03:19:11;76.60;;;21.47;;
81627;SDS011;71036;51.102;6.514;2023-11-21T03:21:36;81.27;;;22.53;;
81627;SDS011;71036;51.102;6.514;2023-11-21T03:24:01;72.93;;;20.70;;
81627;SDS011;71036;51.102;6.514;2023-11-21T03:26:26;78.63;;;21.67;;
81627;SDS011;71036;51.102;6.514;2023-11-21T03:28:51;86.68;;;21.88;;
81627;SDS011;71036;51.102;6.514;2023-11-21T03:31:18;76.03;;;21.83;;
81627;SDS011;71036;51.102;6.514;2023-11-21T03:33:44;95.57;;;21.33;;
81627;SDS011;71036;51.102;6.514;2023-11-21T03:36:10;93.07;;;23.50;;
81627;SDS011;71036;51.102;6.514;2023-11-21T03:38:35;73.70;;;20.13;;
81627;SDS011;71036;51.102;6.514;2023-11-21T03:41:01;69.40;;;21.03;;
81627;SDS011;71036;51.102;6.514;2023-11-21T03:43:26;77.80;;;21.42;;
81627;SDS011;71036;51.102;6.514;2023-11-21T03:45:51;75.60;;;20.93;;
81627;SDS011;71036;51.102;6.514;2023-11-21T03:48:16;87.88;;;21.33;;
81627;SDS011;71036;51.102;6.514;2023-11-21T03:50:42;73.70;;;19.40;;
81627;SDS011;71036;51.102;6.514;2023-11-21T03:53:07;87.23;;;22.07;;
81627;SDS011;71036;51.102;6.514;2023-11-21T03:55:32;83.30;;;22.45;;
81627;SDS011;71036;51.102;6.514;2023-11-21T03:57:57;85.40;;;25.03;;
81627;SDS011;71036;51.102;6.514;2023-11-21T04:00:23;89.87;;;25.87;;
81627;SDS011;71036;51.102;6.514;2023-11-21T04:02:48;122.47;;;29.97;;
81627;SDS011;71036;51.102;6.514;2023-11-21T04:05:13;148.20;;;30.27;;
81627;SDS011;71036;51.102;6.514;2023-11-21T04:07:39;137.40;;;32.90;;
81627;SDS011;71036;51.102;6.514;2023-11-21T04:10:04;149.53;;;33.47;;
81627;SDS011;71036;51.102;6.514;2023-11-21T04:12:32;147.47;;;33.57;;
81627;SDS011;71036;51.102;6.514;2023-11-21T04:14:57;124.67;;;29.23;;
81627;SDS011;71036;51.102;6.514;2023-11-21T04:17:22;111.07;;;28.95;;
81627;SDS011;71036;51.102;6.514;2023-11-21T04:19:47;133.25;;;32.15;;
81627;SDS011;71036;51.102;6.514;2023-11-21T04:22:12;118.05;;;30.52;;
81627;SDS011;71036;51.102;6.514;2023-11-21T04:24:38;105.90;;;28.80;;
81627;SDS011;71036;51.102;6.514;2023-11-21T04:27:03;84.17;;;25.30;;
81627;SDS011;71036;51.102;6.514;2023-11-21T04:29:28;98.77;;;26.43;;
81627;SDS011;71036;51.102;6.514;2023-11-21T04:31:53;88.50;;;23.87;;
81627;SDS011;71036;51.102;6.514;2023-11-21T04:34:18;94.18;;;23.63;;
81627;SDS011;71036;51.102;6.514;2023-11-21T04:36:44;82.72;;;22.17;;
81627;SDS011;71036;51.102;6.514;2023-11-21T04:39:09;74.37;;;23.47;;
81627;SDS011;71036;51.102;6.514;2023-11-21T04:41:34;85.53;;;22.30;;
81627;SDS011;71036;51.102;6.514;2023-11-21T04:43:59;79.40;;;20.65;;
81627;SDS011;71036;51.102;6.514;2023-11-21T04:46:27;74.57;;;20.57;;
81627;SDS011;71036;51.102;6.514;2023-11-21T04:48:52;83.87;;;21.97;;
81627;SDS011;71036;51.102;6.514;2023-11-21T04:51:17;87.50;;;22.03;;
81627;SDS011;71036;51.102;6.514;2023-11-21T04:53:43;99.63;;;22.27;;
81627;SDS011;71036;51.102;6.514;2023-11-21T04:56:08;116.33;;;22.87;;
81627;SDS011;71036;51.102;6.514;2023-11-21T04:58:33;123.60;;;22.23;;
81627;SDS011;71036;51.102;6.514;2023-11-21T05:00:58;134.10;;;25.20;;
81627;SDS011;71036;51.102;6.514;2023-11-21T05:03:23;132.02;;;24.42;;
81627;SDS011;71036;51.102;6.514;2023-11-21T05:05:48;145.67;;;26.23;;
81627;SDS011;71036;51.102;6.514;2023-11-21T05:08:14;159.97;;;25.83;;
81627;SDS011;71036;51.102;6.514;2023-11-21T05:10:39;143.60;;;26.97;;
81627;SDS011;71036;51.102;6.514;2023-11-21T05:13:04;126.10;;;23.77;;
81627;SDS011;71036;51.102;6.514;2023-11-21T05:15:29;137.57;;;24.83;;
81627;SDS011;71036;51.102;6.514;2023-11-21T05:17:54;161.20;;;27.23;;
81627;SDS011;71036;51.102;6.514;2023-11-21T05:20:20;133.53;;;25.10;;
81627;SDS011;71036;51.102;6.514;2023-11-21T05:22:48;174.80;;;26.43;;
81627;SDS011;71036;51.102;6.514;2023-11-21T05:25:14;151.40;;;28.00;;
81627;SDS011;71036;51.102;6.514;2023-11-21T05:27:39;160.03;;;25.70;;
81627;SDS011;71036;51.102;6.514;2023-11-21T05:30:04;154.83;;;26.70;;
81627;SDS011;71036;51.102;6.514;2023-11-21T05:32:30;123.07;;;25.60;;
81627;SDS011;71036;51.102;6.514;2023-11-21T05:34:55;128.13;;;22.87;;
81627;SDS011;71036;51.102;6.514;2023-11-21T05:37:20;151.02;;;28.58;;
81627;SDS011;71036;51.102;6.514;2023-11-21T05:39:46;159.20;;;28.77;;
81627;SDS011;71036;51.102;6.514;2023-11-21T05:42:11;165.57;;;28.77;;
81627;SDS011;71036;51.102;6.514;2023-11-21T05:44:37;144.77;;;27.88;;
81627;SDS011;71036;51.102;6.514;2023-11-21T05:47:02;154.23;;;31.13;;
81627;SDS011;71036;51.102;6.514;2023-11-21T05:49:28;191.77;;;31.50;;
81627;SDS011;71036;51.102;6.514;2023-11-21T05:51:54;165.67;;;32.80;;
81627;SDS011;71036;51.102;6.514;2023-11-21T05:54:19;161.27;;;31.30;;
81627;SDS011;71036;51.102;6.514;2023-11-21T05:56:45;177.07;;;32.90;;
81627;SDS011;71036;51.102;6.514;2023-11-21T05:59:10;151.57;;;29.87;;
81627;SDS011;71036;51.102;6.514;2023-11-21T06:01:35;156.37;;;31.87;;
81627;SDS011;71036;51.102;6.514;2023-11-21T06:04:03;133.30;;;29.90;;
81627;SDS011;71036;51.102;6.514;2023-11-21T06:06:29;127.73;;;28.77;;
81627;SDS011;71036;51.102;6.514;2023-11-21T06:08:54;140.90;;;29.67;;
81627;SDS011;71036;51.102;6.514;2023-11-21T06:11:19;123.23;;;26.40;;
81627;SDS011;71036;51.102;6.514;2023-11-21T06:13:44;150.57;;;30.20;;
81627;SDS011;71036;51.102;6.514;2023-11-21T06:16:10;131.60;;;28.33;;
81627;SDS011;71036;51.102;6.514;2023-11-21T06:18:35;144.20;;;27.97;;
81627;SDS011;71036;51.102;6.514;2023-11-21T06:21:00;130.35;;;29.50;;
81627;SDS011;71036;51.102;6.514;2023-11-21T06:23:25;128.87;;;27.77;;
81627;SDS011;71036;51.102;6.514;2023-11-21T06:25:50;133.30;;;31.57;;
81627;SDS011;71036;51.102;6.514;2023-11-21T06:28:15;147.50;;;30.47;;
81627;SDS011;71036;51.102;6.514;2023-11-21T06:30:42;118.90;;;28.10;;
81627;SDS011;71036;51.102;6.514;2023-11-21T06:33:09;111.53;;;26.90;;
81627;SDS011;71036;51.102;6.514;2023-11-21T06:35:34;123.23;;;29.00;;
81627;SDS011;71036;51.102;6.514;2023-11-21T06:37:59;133.23;;;29.07;;
81627;SDS011;71036;51.102;6.514;2023-11-21T06:40:25;136.30;;;27.33;;
81627;SDS011;71036;51.102;6.514;2023-11-21T06:42:50;114.22;;;28.27;;
81627;SDS011;71036;51.102;6.514;2023-11-21T06:45:15;131.10;;;29.40;;
81627;SDS011;71036;51.102;6.514;2023-11-21T06:47:41;162.40;;;30.43;;
81627;SDS011;71036;51.102;6.514;2023-11-21T06:50:06;122.73;;;28.60;;
81627;SDS011;71036;51.102;6.514;2023-11-21T06:52:32;146.97;;;30.10;;
81627;SDS011;71036;51.102;6.514;2023-11-21T06:54:57;127.10;;;27.80;;
81627;SDS011;71036;51.102;6.514;2023-11-21T06:57:23;132.03;;;30.30;;
81627;SDS011;71036;51.102;6.514;2023-11-21T06:59:48;139.70;;;30.43;;
81627;SDS011;71036;51.102;6.514;2023-11-21T07:02:13;155.30;;;30.83;;
81627;SDS011;71036;51.102;6.514;2023-11-21T07:04:39;140.53;;;30.10;;
81627;SDS011;71036;51.102;6.514;2023-11-21T07:07:04;160.63;;;33.63;;
81627;SDS011;71036;51.102;6.514;2023-11-21T07:09:31;154.77;;;29.23;;
81627;SDS011;71036;51.102;6.514;2023-11-21T07:11:57;146.70;;;30.40;;
81627;SDS011;71036;51.102;6.514;2023-11-21T07:14:22;169.47;;;30.73;;
81627;SDS011;71036;51.102;6.514;2023-11-21T07:16:47;155.93;;;32.57;;
81627;SDS011;71036;51.102;6.514;2023-11-21T07:19:12;191.00;;;31.13;;
81627;SDS011;71036;51.102;6.514;2023-11-21T07:21:38;189.93;;;32.30;;
81627;SDS011;71036;51.102;6.514;2023-11-21T07:24:04;174.47;;;30.70;;
81627;SDS011;71036;51.102;6.514;2023-11-21T07:26:30;160.63;;;31.70;;
81627;SDS011;71036;51.102;6.514;2023-11-21T07:28:55;181.27;;;34.13;;
81627;SDS011;71036;51.102;6.514;2023-11-21T07:31:21;130.83;;;27.77;;
81627;SDS011;71036;51.102;6.514;2023-11-21T07:33:46;134.80;;;26.63;;
81627;SDS011;71036;51.102;6.514;2023-11-21T07:36:14;137.90;;;30.17;;
81627;SDS011;71036;51.102;6.514;2023-11-21T07:38:40;136.63;;;29.37;;
81627;SDS011;71036;51.102;6.514;2023-11-21T07:41:05;120.00;;;28.90;;
81627;SDS011;71036;51.102;6.514;2023-11-21T07:43:32;144.67;;;26.20;;
81627;SDS011;71036;51.102;6.514;2023-11-21T07:46:00;148.27;;;28.27;;
81627;SDS011;71036;51.102;6.514;2023-11-21T07:48:25;155.00;;;29.83;;
81627;SDS011;71036;51.102;6.514;2023-11-21T07:50:51;128.43;;;26.77;;
81627;SDS011;71036;51.102;6.514;2023-11-21T07:53:16;144.38;;;29.55;;
81627;SDS011;71036;51.102;6.514;2023-11-21T07:55:41;129.15;;;27.17;;
81627;SDS011;71036;51.102;6.514;2023-11-21T07:58:07;139.17;;;27.43;;
81627;SDS011;71036;51.102;6.514;2023-11-21T08:00:32;128.13;;;27.75;;
81627;SDS011;71036;51.102;6.514;2023-11-21T08:02:58;133.57;;;26.20;;
81627;SDS011;71036;51.102;6.514;2023-11-21T08:05:23;155.93;;;28.20;;
81627;SDS011;71036;51.102;6.514;2023-11-21T08:07:49;162.70;;;28.93;;
81627;SDS011;71036;51.102;6.514;2023-11-21T08:10:14;156.77;;;26.87;;
81627;SDS011;71036;51.102;6.514;2023-11-21T08:12:41;156.67;;;27.70;;
81627;SDS011;71036;51.102;6.514;2023-11-21T08:15:07;146.20;;;27.37;;
81627;SDS011;71036;51.102;6.514;2023-11-21T08:17:33;132.57;;;25.70;;
81627;SDS011;71036;51.102;6.514;2023-11-21T08:19:58;174.20;;;26.90;;
81627;SDS011;71036;51.102;6.514;2023-11-21T08:22:23;158.40;;;27.08;;
81627;SDS011;71036;51.102;6.514;2023-11-21T08:24:50;181.20;;;27.60;;
81627;SDS011;71036;51.102;6.514;2023-11-21T08:27:15;146.43;;;26.10;;
81627;SDS011;71036;51.102;6.514;2023-11-21T08:29:41;136.50;;;24.57;;
81627;SDS011;71036;51.102;6.514;2023-11-21T08:32:06;135.00;;;26.27;;
81627;SDS011;71036;51.102;6.514;2023-11-21T08:34:32;139.53;;;25.47;;
81627;SDS011;71036;51.102;6.514;2023-11-21T08:36:57;133.63;;;28.03;;
81627;SDS011;71036;51.102;6.514;2023-11-21T08:39:22;135.00;;;23.23;;
81627;SDS011;71036;51.102;6.514;2023-11-21T08:41:49;136.50;;;26.87;;
81627;SDS011;71036;51.102;6.514;2023-11-21T08:44:14;106.10;;;21.80;;
81627;SDS011;71036;51.102;6.514;2023-11-21T08:46:41;107.77;;;21.63;;
81627;SDS011;71036;51.102;6.514;2023-11-21T08:49:08;97.37;;;22.10;;
81627;SDS011;71036;51.102;6.514;2023-11-21T08:51:33;119.17;;;23.10;;
81627;SDS011;71036;51.102;6.514;2023-11-21T08:53:59;95.82;;;21.23;;
81627;SDS011;71036;51.102;6.514;2023-11-21T08:56:25;78.37;;;20.20;;
81627;SDS011;71036;51.102;6.514;2023-11-21T08:58:51;67.27;;;16.63;;
81627;SDS011;71036;51.102;6.514;2023-11-21T09:01:16;89.90;;;19.70;;
81627;SDS011;71036;51.102;6.514;2023-11-21T09:03:42;86.20;;;18.53;;
81627;SDS011;71036;51.102;6.514;2023-11-21T09:06:08;79.07;;;20.07;;
81627;SDS011;71036;51.102;6.514;2023-11-21T09:08:34;77.83;;;17.83;;
81627;SDS011;71036;51.102;6.514;2023-11-21T09:11:00;74.75;;;18.02;;
81627;SDS011;71036;51.102;6.514;2023-11-21T09:13:25;66.28;;;18.67;;
81627;SDS011;71036;51.102;6.514;2023-11-21T09:15:50;72.03;;;18.87;;
81627;SDS011;71036;51.102;6.514;2023-11-21T09:18:16;81.53;;;19.20;;
81627;SDS011;71036;51.102;6.514;2023-11-21T09:20:42;74.38;;;20.52;;
81627;SDS011;71036;51.102;6.514;2023-11-21T09:23:09;60.83;;;17.30;;
81627;SDS011;71036;51.102;6.514;2023-11-21T09:25:34;68.50;;;17.17;;
81627;SDS011;71036;51.102;6.514;2023-11-21T09:27:59;76.60;;;19.77;;
81627;SDS011;71036;51.102;6.514;2023-11-21T09:30:24;72.27;;;20.10;;
81627;SDS011;71036;51.102;6.514;2023-11-21T09:32:50;69.57;;;17.63;;
81627;SDS011;71036;51.102;6.514;2023-11-21T09:35:15;69.17;;;15.53;;
81627;SDS011;71036;51.102;6.514;2023-11-21T09:37:42;70.63;;;17.67;;
81627;SDS011;71036;51.102;6.514;2023-11-21T09:40:09;65.73;;;19.13;;
81627;SDS011;71036;51.102;6.514;2023-11-21T09:42:43;53.97;;;17.50;;
81627;SDS011;71036;51.102;6.514;2023-11-21T09:45:23;55.60;;;16.40;;
81627;SDS011;71036;51.102;6.514;2023-11-21T09:47:50;79.17;;;17.17;;
81627;SDS011;71036;51.102;6.514;2023-11-21T09:50:17;59.40;;;16.30;;
81627;SDS011;71036;51.102;6.514;2023-11-21T09:55:13;57.10;;;16.37;;
81627;SDS011;71036;51.102;6.514;2023-11-21T09:57:41;67.23;;;16.03;;
81627;SDS011;71036;51.102;6.514;2023-11-21T10:00:06;58.70;;;16.47;;
81627;SDS011;71036;51.102;6.514;2023-11-21T10:02:36;48.67;;;16.07;;
81627;SDS011;71036;51.102;6.514;2023-11-21T10:05:03;50.97;;;14.70;;
81627;SDS011;71036;51.102;6.514;2023-11-21T10:07:28;61.77;;;15.20;;
81627;SDS011;71036;51.102;6.514;2023-11-21T10:09:55;59.40;;;15.47;;
81627;SDS011;71036;51.102;6.514;2023-11-21T10:12:21;58.90;;;17.53;;
81627;SDS011;71036;51.102;6.514;2023-11-21T10:14:48;47.53;;;15.43;;
81627;SDS011;71036;51.102;6.514;2023-11-21T10:17:14;56.00;;;16.13;;
81627;SDS011;71036;51.102;6.514;2023-11-21T10:19:41;45.10;;;15.07;;
81627;SDS011;71036;51.102;6.514;2023-11-21T10:22:07;43.77;;;14.73;;
81627;SDS011;71036;51.102;6.514;2023-11-21T10:24:33;44.10;;;14.50;;
81627;SDS011;71036;51.102;6.514;2023-11-21T10:26:58;48.53;;;15.17;;
81627;SDS011;71036;51.102;6.514;2023-11-21T10:29:28;45.57;;;14.53;;
81627;SDS011;71036;51.102;6.514;2023-11-21T10:31:54;40.63;;;14.80;;
81627;SDS011;71036;51.102;6.514;2023-11-21T10:34:22;31.57;;;13.90;;
81627;SDS011;71036;51.102;6.514;2023-11-21T10:36:47;41.22;;;13.48;;
81627;SDS011;71036;51.102;6.514;2023-11-21T10:39:14;43.23;;;13.33;;
81627;SDS011;71036;51.102;6.514;2023-11-21T10:41:43;42.80;;;13.63;;
81627;SDS011;71036;51.102;6.514;2023-11-21T10:44:08;39.93;;;10.90;;
81627;SDS011;71036;51.102;6.514;2023-11-21T10:46:34;36.43;;;12.77;;
81627;SDS011;71036;51.102;6.514;2023-11-21T10:49:00;40.37;;;10.90;;
81627;SDS011;71036;51.102;6.514;2023-11-21T10:51:25;32.35;;;11.50;;
81627;SDS011;71036;51.102;6.514;2023-11-21T10:53:53;55.37;;;15.47;;
81627;SDS011;71036;51.102;6.514;2023-11-21T10:56:19;50.40;;;15.07;;
81627;SDS011;71036;51.102;6.514;2023-11-21T10:58:51;46.10;;;15.80;;
81627;SDS011;71036;51.102;6.514;2023-11-21T11:01:17;54.07;;;15.83;;
81627;SDS011;71036;51.102;6.514;2023-11-21T11:03:43;43.00;;;13.63;;
81627;SDS011;71036;51.102;6.514;2023-11-21T11:06:09;32.13;;;11.73;;
81627;SDS011;71036;51.102;6.514;2023-11-21T11:08:36;27.40;;;10.17;;
81627;SDS011;71036;51.102;6.514;2023-11-21T11:11:02;39.87;;;11.17;;
81627;SDS011;71036;51.102;6.514;2023-11-21T11:13:27;25.17;;;9.60;;
81627;SDS011;71036;51.102;6.514;2023-11-21T11:16:00;36.67;;;10.70;;
81627;SDS011;71036;51.102;6.514;2023-11-21T11:18:31;27.60;;;10.60;;
81627;SDS011;71036;51.102;6.514;2023-11-21T11:21:05;37.73;;;11.20;;
81627;SDS011;71036;51.102;6.514;2023-11-21T11:26:32;33.77;;;11.67;;
81627;SDS011;71036;51.102;6.514;2023-11-21T11:29:13;34.33;;;10.03;;
81627;SDS011;71036;51.102;6.514;2023-11-21T11:32:00;27.13;;;9.13;;
81627;SDS011;71036;51.102;6.514;2023-11-21T11:34:30;20.47;;;9.00;;
81627;SDS011;71036;51.102;6.514;2023-11-21T11:37:04;28.17;;;10.37;;
81627;SDS011;71036;51.102;6.514;2023-11-21T11:39:40;30.57;;;10.70;;
81627;SDS011;71036;51.102;6.514;2023-11-21T11:42:12;47.03;;;11.23;;
81627;SDS011;71036;51.102;6.514;2023-11-21T11:47:32;33.47;;;11.63;;
81627;SDS011;71036;51.102;6.514;2023-11-21T11:52:32;34.73;;;10.70;;
81627;SDS011;71036;51.102;6.514;2023-11-21T11:54:59;40.73;;;10.80;;
81627;SDS011;71036;51.102;6.514;2023-11-21T11:57:24;27.87;;;9.23;;
81627;SDS011;71036;51.102;6.514;2023-11-21T12:02:39;36.37;;;9.90;;
81627;SDS011;71036;51.102;6.514;2023-11-21T12:05:09;35.20;;;9.33;;
81627;SDS011;71036;51.102;6.514;2023-11-21T12:07:47;54.33;;;11.50;;
81627;SDS011;71036;51.102;6.514;2023-11-21T12:10:13;41.93;;;10.50;;
81627;SDS011;71036;51.102;6.514;2023-11-21T12:12:42;23.73;;;9.60;;
81627;SDS011;71036;51.102;6.514;2023-11-21T12:15:07;32.97;;;10.70;;
81627;SDS011;71036;51.102;6.514;2023-11-21T12:17:32;30.53;;;10.60;;
81627;SDS011;71036;51.102;6.514;2023-11-21T12:20:04;34.03;;;10.20;;
81627;SDS011;71036;51.102;6.514;2023-11-21T12:22:31;26.40;;;9.90;;
81627;SDS011;71036;51.102;6.514;2023-11-21T12:24:56;37.13;;;10.77;;
81627;SDS011;71036;51.102;6.514;2023-11-21T12:27:21;28.98;;;10.75;;
81627;SDS011;71036;51.102;6.514;2023-11-21T12:29:47;48.03;;;11.60;;
81627;SDS011;71036;51.102;6.514;2023-11-21T12:32:12;43.77;;;11.17;;
81627;SDS011;71036;51.102;6.514;2023-11-21T12:34:41;29.67;;;10.60;;
81627;SDS011;71036;51.102;6.514;2023-11-21T12:37:06;32.50;;;10.30;;
81627;SDS011;71036;51.102;6.514;2023-11-21T12:39:31;25.80;;;9.00;;
81627;SDS011;71036;51.102;6.514;2023-11-21T12:41:57;31.13;;;9.13;;
81627;SDS011;71036;51.102;6.514;2023-11-21T12:44:22;26.83;;;9.70;;
81627;SDS011;71036;51.102;6.514;2023-11-21T12:46:48;26.13;;;10.10;;
81627;SDS011;71036;51.102;6.514;2023-11-21T12:49:14;31.13;;;10.50;;
81627;SDS011;71036;51.102;6.514;2023-11-21T12:51:42;34.80;;;9.80;;
81627;SDS011;71036;51.102;6.514;2023-11-21T12:54:08;41.90;;;10.90;;
81627;SDS011;71036;51.102;6.514;2023-11-21T12:56:37;30.63;;;9.33;;
81627;SDS011;71036;51.102;6.514;2023-11-21T12:59:03;28.50;;;9.83;;
81627;SDS011;71036;51.102;6.514;2023-11-21T13:01:29;23.87;;;9.60;;
81627;SDS011;71036;51.102;6.514;2023-11-21T13:03:57;31.43;;;10.57;;
81627;SDS011;71036;51.102;6.514;2023-11-21T13:06:22;29.03;;;10.80;;
81627;SDS011;71036;51.102;6.514;2023-11-21T13:08:50;36.63;;;11.73;;
81627;SDS011;71036;51.102;6.514;2023-11-21T13:11:15;35.70;;;13.07;;
81627;SDS011;71036;51.102;6.514;2023-11-21T13:13:43;28.43;;;12.47;;
81627;SDS011;71036;51.102;6.514;2023-11-21T13:16:11;28.93;;;11.03;;
81627;SDS011;71036;51.102;6.514;2023-11-21T13:18:36;33.77;;;12.17;;
81627;SDS011;71036;51.102;6.514;2023-11-21T13:21:03;25.53;;;10.97;;
81627;SDS011;71036;51.102;6.514;2023-11-21T13:23:35;31.00;;;12.87;;
81627;SDS011;71036;51.102;6.514;2023-11-21T13:26:02;40.07;;;12.37;;
81627;SDS011;71036;51.102;6.514;2023-11-21T13:28:28;32.63;;;12.87;;
81627;SDS011;71036;51.102;6.514;2023-11-21T13:30:57;35.00;;;12.67;;
81627;SDS011;71036;51.102;6.514;2023-11-21T13:33:27;31.50;;;12.30;;
81627;SDS011;71036;51.102;6.514;2023-11-21T13:35:53;36.93;;;14.10;;
81627;SDS011;71036;51.102;6.514;2023-11-21T13:38:20;30.27;;;11.83;;
81627;SDS011;71036;51.102;6.514;2023-11-21T13:40:49;36.33;;;12.17;;
81627;SDS011;71036;51.102;6.514;2023-11-21T13:43:15;34.43;;;12.33;;
81627;SDS011;71036;51.102;6.514;2023-11-21T13:45:41;38.10;;;11.87;;
81627;SDS011;71036;51.102;6.514;2023-11-21T13:48:07;29.57;;;12.40;;
81627;SDS011;71036;51.102;6.514;2023-11-21T13:50:36;29.97;;;10.83;;
81627;SDS011;71036;51.102;6.514;2023-11-21T13:53:02;31.30;;;10.37;;
81627;SDS011;71036;51.102;6.514;2023-11-21T13:55:46;27.70;;;11.30;;
81627;SDS011;71036;51.102;6.514;2023-11-21T13:58:12;31.20;;;11.07;;
81627;SDS011;71036;51.102;6.514;2023-11-21T14:00:43;27.43;;;11.77;;
81627;SDS011;71036;51.102;6.514;2023-11-21T14:03:12;27.57;;;11.10;;
81627;SDS011;71036;51.102;6.514;2023-11-21T14:05:46;26.27;;;9.77;;
81627;SDS011;71036;51.102;6.514;2023-11-21T14:08:13;24.57;;;9.80;;
81627;SDS011;71036;51.102;6.514;2023-11-21T14:10:41;29.90;;;11.60;;
81627;SDS011;71036;51.102;6.514;2023-11-21T14:13:14;26.03;;;9.60;;
81627;SDS011;71036;51.102;6.514;2023-11-21T14:15:41;24.87;;;9.93;;
81627;SDS011;71036;51.102;6.514;2023-11-21T14:18:08;31.27;;;10.00;;
81627;SDS011;71036;51.102;6.514;2023-11-21T14:20:36;21.53;;;9.47;;
81627;SDS011;71036;51.102;6.514;2023-11-21T14:23:02;31.17;;;8.83;;
81627;SDS011;71036;51.102;6.514;2023-11-21T14:25:28;19.07;;;8.30;;
81627;SDS011;71036;51.102;6.514;2023-11-21T14:27:53;16.23;;;7.53;;